createdAt,value
2019-02-20T00:00:26.982Z,5.70
2019-02-20T00:01:26.962Z,5.70
2019-02-20T00:02:26.951Z,5.74
2019-02-20T00:03:27.993Z,5.82
2019-02-20T00:04:26.934Z,5.78
2019-02-20T00:05:26.928Z,5.83
2019-02-20T00:06:26.910Z,5.74
2019-02-20T00:07:26.904Z,5.78
2019-02-20T00:08:26.905Z,5.73
2019-02-20T00:09:26.881Z,5.74
2019-02-20T00:10:26.873Z,5.74
2019-02-20T00:11:26.854Z,5.75
2019-02-20T00:12:26.842Z,5.81
2019-02-20T00:13:26.834Z,5.83
2019-02-20T00:14:26.822Z,5.78
2019-02-20T00:15:26.823Z,5.81
2019-02-20T00:16:26.802Z,5.81
2019-02-20T00:17:26.790Z,5.81
2019-02-20T00:18:26.779Z,5.81
2019-02-20T00:19:26.768Z,5.82
2019-02-20T00:20:26.765Z,5.78
2019-02-20T00:21:26.750Z,5.73
2019-02-20T00:22:26.744Z,5.83
2019-02-20T00:23:26.725Z,5.77
2019-02-20T00:24:26.715Z,5.74
2019-02-20T00:25:26.715Z,5.75
2019-02-20T00:26:26.698Z,5.70
2019-02-20T00:27:26.683Z,5.74
2019-02-20T00:28:26.672Z,5.70
2019-02-20T00:29:26.661Z,5.68
2019-02-20T00:30:26.663Z,5.70
2019-02-20T00:31:26.647Z,5.60
2019-02-20T00:32:26.627Z,5.66
2019-02-20T00:33:26.618Z,5.63
2019-02-20T00:34:26.606Z,5.70
2019-02-20T00:35:26.605Z,5.71
2019-02-20T00:36:26.586Z,5.60
2019-02-20T00:37:26.575Z,5.70
2019-02-20T00:38:26.564Z,5.70
2019-02-20T00:39:26.554Z,5.67
2019-02-20T00:40:26.556Z,5.66
2019-02-20T00:41:26.531Z,5.66
2019-02-20T00:42:26.522Z,5.60
2019-02-20T00:43:26.512Z,5.64
2019-02-20T00:44:26.500Z,5.73
2019-02-20T00:45:26.516Z,5.66
2019-02-20T00:46:26.478Z,5.63
2019-02-20T00:47:26.468Z,5.63
2019-02-20T00:48:26.459Z,5.66
2019-02-20T00:49:26.447Z,5.63
2019-02-20T00:50:26.444Z,5.53
2019-02-20T00:51:26.425Z,5.67
2019-02-20T00:52:26.414Z,5.63
2019-02-20T00:53:26.406Z,5.64
2019-02-20T00:54:26.396Z,5.64
2019-02-20T00:55:26.390Z,5.56
2019-02-20T00:56:26.381Z,5.66
2019-02-20T00:57:26.362Z,5.67
2019-02-20T00:58:26.351Z,5.60
2019-02-20T00:59:26.340Z,5.70
2019-02-20T01:00:26.349Z,5.63
2019-02-20T01:01:26.319Z,5.70
2019-02-20T01:02:26.308Z,5.70
2019-02-20T01:03:26.299Z,5.55
2019-02-20T01:04:26.301Z,5.60
2019-02-20T01:05:26.276Z,5.57
2019-02-20T01:06:26.275Z,5.57
2019-02-20T01:07:26.318Z,5.59
2019-02-20T01:08:26.244Z,5.56
2019-02-20T01:09:26.236Z,5.59
2019-02-20T01:10:26.223Z,5.57
2019-02-20T01:11:26.220Z,5.53
2019-02-20T01:12:26.201Z,5.59
2019-02-20T01:13:26.193Z,5.57
2019-02-20T01:14:26.181Z,5.64
2019-02-20T01:15:26.175Z,5.60
2019-02-20T01:16:26.166Z,5.50
2019-02-20T01:17:26.149Z,5.53
2019-02-20T01:18:26.137Z,5.48
2019-02-20T01:19:26.133Z,5.48
2019-02-20T01:20:26.115Z,5.55
2019-02-20T01:21:26.115Z,5.45
2019-02-20T01:22:26.093Z,5.46
2019-02-20T01:23:26.084Z,5.55
2019-02-20T01:24:26.073Z,5.57
2019-02-20T01:25:26.068Z,5.56
2019-02-20T01:26:26.063Z,5.59
2019-02-20T01:27:26.044Z,5.56
2019-02-20T01:28:26.033Z,5.52
2019-02-20T01:29:26.020Z,5.56
2019-02-20T01:30:26.010Z,5.46
2019-02-20T01:31:26.021Z,5.49
2019-02-20T01:32:25.987Z,5.49
2019-02-20T01:33:25.977Z,5.52
2019-02-20T01:34:25.966Z,5.45
2019-02-20T01:35:25.957Z,5.46
2019-02-20T01:36:25.956Z,5.50
2019-02-20T01:37:25.934Z,5.55
2019-02-20T01:38:25.923Z,5.49
2019-02-20T01:39:25.913Z,5.49
2019-02-20T01:40:25.904Z,5.38
2019-02-20T01:41:25.903Z,5.48
2019-02-20T01:42:25.880Z,5.48
2019-02-20T01:43:25.870Z,5.46
2019-02-20T01:44:25.862Z,5.38
2019-02-20T01:45:25.853Z,5.41
2019-02-20T01:46:25.848Z,5.43
2019-02-20T01:47:25.831Z,5.41
2019-02-20T01:48:25.817Z,5.45
2019-02-20T01:49:25.805Z,5.32
2019-02-20T01:50:25.797Z,5.41
2019-02-20T01:51:25.833Z,5.45
2019-02-20T01:52:25.774Z,5.34
2019-02-20T01:53:25.767Z,5.43
2019-02-20T01:54:25.752Z,5.48
2019-02-20T01:55:25.741Z,5.50
2019-02-20T01:56:25.739Z,5.48
2019-02-20T01:57:25.725Z,5.53
2019-02-20T01:58:25.710Z,5.49
2019-02-20T01:59:25.698Z,5.48
2019-02-20T02:00:25.689Z,5.45
2019-02-20T02:01:25.685Z,5.52
2019-02-20T02:02:25.671Z,5.48
2019-02-20T02:03:25.656Z,5.52
2019-02-20T02:04:25.645Z,5.50
2019-02-20T02:05:25.636Z,5.45
2019-02-20T02:06:25.632Z,5.50
2019-02-20T02:07:25.612Z,5.60
2019-02-20T02:08:25.605Z,5.57
2019-02-20T02:09:25.592Z,5.63
2019-02-20T02:10:25.583Z,5.59
2019-02-20T02:11:25.579Z,5.59
2019-02-20T02:12:25.560Z,5.70
2019-02-20T02:13:25.551Z,5.59
2019-02-20T02:14:25.541Z,5.59
2019-02-20T02:15:25.527Z,5.68
2019-02-20T02:16:25.525Z,5.63
2019-02-20T02:17:25.510Z,5.64
2019-02-20T02:18:25.496Z,5.63
2019-02-20T02:19:25.485Z,5.59
2019-02-20T02:20:25.473Z,5.56
2019-02-20T02:21:25.472Z,5.64
2019-02-20T02:22:25.454Z,5.55
2019-02-20T02:23:25.441Z,5.64
2019-02-20T02:24:25.431Z,5.57
2019-02-20T02:25:25.421Z,5.52
2019-02-20T02:26:25.418Z,5.50
2019-02-20T02:27:25.400Z,5.48
2019-02-20T02:28:25.390Z,5.40
2019-02-20T02:29:25.379Z,5.37
2019-02-20T02:30:25.391Z,5.41
2019-02-20T02:31:25.364Z,5.34
2019-02-20T02:32:25.344Z,5.40
2019-02-20T02:33:25.334Z,5.34
2019-02-20T02:34:25.325Z,5.30
2019-02-20T02:35:25.319Z,5.32
2019-02-20T02:36:25.316Z,5.23
2019-02-20T02:37:25.291Z,5.19
2019-02-20T02:38:25.280Z,5.09
2019-02-20T02:39:25.281Z,5.16
2019-02-20T02:40:25.262Z,5.10
2019-02-20T02:41:25.258Z,5.09
2019-02-20T02:42:25.238Z,5.13
2019-02-20T02:43:25.229Z,5.13
2019-02-20T02:44:25.218Z,5.09
2019-02-20T02:45:25.210Z,5.23
2019-02-20T02:46:25.210Z,5.12
2019-02-20T02:47:25.186Z,5.16
2019-02-20T02:48:25.174Z,5.14
2019-02-20T02:49:25.165Z,4.99
2019-02-20T02:50:25.153Z,5.09
2019-02-20T02:51:25.152Z,5.09
2019-02-20T02:52:25.132Z,5.07
2019-02-20T02:53:30.777Z,5.13
2019-02-20T02:54:26.112Z,5.12
2019-02-20T02:55:25.100Z,5.02
2019-02-20T02:56:25.090Z,4.92
2019-02-20T02:57:25.090Z,4.99
2019-02-20T02:58:25.067Z,4.98
2019-02-20T02:59:25.058Z,4.96
2019-02-20T03:00:25.050Z,4.99
2019-02-20T03:01:25.036Z,4.94
2019-02-20T03:02:25.036Z,4.98
2019-02-20T03:03:25.015Z,5.07
2019-02-20T03:04:25.005Z,4.96
2019-02-20T03:05:24.994Z,4.96
2019-02-20T03:06:24.983Z,4.98
2019-02-20T03:07:24.982Z,4.86
2019-02-20T03:08:24.961Z,4.94
2019-02-20T03:09:24.952Z,4.94
2019-02-20T03:10:24.944Z,4.92
2019-02-20T03:11:24.931Z,4.95
2019-02-20T03:12:24.928Z,4.92
2019-02-20T03:13:24.908Z,4.92
2019-02-20T03:14:24.900Z,4.95
2019-02-20T03:15:24.888Z,4.92
2019-02-20T03:16:24.880Z,4.94
2019-02-20T03:17:24.877Z,4.99
2019-02-20T03:18:24.857Z,4.94
2019-02-20T03:19:24.845Z,5.04
2019-02-20T03:20:24.834Z,5.04
2019-02-20T03:21:24.826Z,5.05
2019-02-20T03:22:24.821Z,4.95
2019-02-20T03:23:24.814Z,4.94
2019-02-20T03:24:24.792Z,5.02
2019-02-20T03:25:24.781Z,4.95
2019-02-20T03:26:24.776Z,4.92
2019-02-20T03:27:24.770Z,4.98
2019-02-20T03:28:24.748Z,5.01
2019-02-20T03:29:24.737Z,4.89
2019-02-20T03:30:24.728Z,4.94
2019-02-20T03:31:24.717Z,4.95
2019-02-20T03:32:24.715Z,4.91
2019-02-20T03:33:24.695Z,4.92
2019-02-20T03:34:24.684Z,4.94
2019-02-20T03:35:24.673Z,4.86
2019-02-20T03:36:24.663Z,4.92
2019-02-20T03:37:24.662Z,4.94
2019-02-20T03:38:30.332Z,4.98
2019-02-20T03:39:25.701Z,4.91
2019-02-20T03:40:24.621Z,4.94
2019-02-20T03:41:24.609Z,4.95
2019-02-20T03:42:24.609Z,4.98
2019-02-20T03:43:24.587Z,4.92
2019-02-20T03:44:24.577Z,5.01
2019-02-20T03:45:24.571Z,5.05
2019-02-20T03:46:24.556Z,5.13
2019-02-20T03:47:24.575Z,5.14
2019-02-20T03:48:24.535Z,5.13
2019-02-20T03:49:24.523Z,5.09
2019-02-20T03:50:24.514Z,5.14
2019-02-20T03:51:24.505Z,5.14
2019-02-20T03:52:24.504Z,5.23
2019-02-20T03:53:24.481Z,5.14
2019-02-20T03:54:24.473Z,5.09
2019-02-20T03:55:24.463Z,5.16
2019-02-20T03:56:24.457Z,5.17
2019-02-20T03:57:24.449Z,5.16
2019-02-20T03:58:24.428Z,5.13
2019-02-20T03:59:24.417Z,5.12
2019-02-20T04:00:24.407Z,5.13
2019-02-20T04:01:24.402Z,5.13
2019-02-20T04:02:24.393Z,5.10
2019-02-20T04:03:24.376Z,5.12
2019-02-20T04:04:24.372Z,5.16
2019-02-20T04:05:24.360Z,5.17
2019-02-20T04:06:24.343Z,5.20
2019-02-20T04:07:24.341Z,5.19
2019-02-20T04:08:24.321Z,5.27
2019-02-20T04:09:24.313Z,5.35
2019-02-20T04:10:24.300Z,5.30
2019-02-20T04:11:24.291Z,5.25
2019-02-20T04:12:24.288Z,5.23
2019-02-20T04:13:24.267Z,5.27
2019-02-20T04:14:24.266Z,5.34
2019-02-20T04:15:24.248Z,5.32
2019-02-20T04:16:24.237Z,5.37
2019-02-20T04:17:24.234Z,5.45
2019-02-20T04:18:24.215Z,5.40
2019-02-20T04:19:24.211Z,5.40
2019-02-20T04:20:24.199Z,5.48
2019-02-20T04:21:24.184Z,5.50
2019-02-20T04:22:24.188Z,5.57
2019-02-20T04:23:24.163Z,5.52
2019-02-20T04:24:24.149Z,5.56
2019-02-20T04:25:24.144Z,5.55
2019-02-20T04:26:24.153Z,5.46
2019-02-20T04:27:24.126Z,5.41
2019-02-20T04:28:24.108Z,5.56
2019-02-20T04:29:24.097Z,5.59
2019-02-20T04:30:24.087Z,5.60
2019-02-20T04:31:24.078Z,5.55
2019-02-20T04:32:24.090Z,5.57
2019-02-20T04:33:24.056Z,5.59
2019-02-20T04:34:24.043Z,5.57
2019-02-20T04:35:24.039Z,5.63
2019-02-20T04:36:24.026Z,5.60
2019-02-20T04:37:24.020Z,5.55
2019-02-20T04:38:24.006Z,5.55
2019-02-20T04:39:23.990Z,5.56
2019-02-20T04:40:23.981Z,5.59
2019-02-20T04:41:23.970Z,5.57
2019-02-20T04:42:23.968Z,5.55
2019-02-20T04:43:23.949Z,5.70
2019-02-20T04:44:23.938Z,5.57
2019-02-20T04:45:23.926Z,5.67
2019-02-20T04:46:23.918Z,5.57
2019-02-20T04:47:23.915Z,5.71
2019-02-20T04:48:23.896Z,5.64
2019-02-20T04:49:23.884Z,5.70
2019-02-20T04:50:23.873Z,5.75
2019-02-20T04:51:23.865Z,5.68
2019-02-20T04:52:23.860Z,5.64
2019-02-20T04:53:23.841Z,5.64
2019-02-20T04:54:23.831Z,5.73
2019-02-20T04:55:23.820Z,5.70
2019-02-20T04:56:23.809Z,5.74
2019-02-20T04:57:23.809Z,5.68
2019-02-20T04:58:23.796Z,5.71
2019-02-20T04:59:23.781Z,5.75
2019-02-20T05:00:23.766Z,5.73
2019-02-20T05:01:23.758Z,5.75
2019-02-20T05:02:23.757Z,5.81
2019-02-20T05:03:23.743Z,5.78
2019-02-20T05:04:23.735Z,5.73
2019-02-20T05:05:23.713Z,5.75
2019-02-20T05:06:23.704Z,5.78
2019-02-20T05:07:23.701Z,5.86
2019-02-20T05:08:23.702Z,5.89
2019-02-20T05:09:23.671Z,5.81
2019-02-20T05:10:23.661Z,5.77
2019-02-20T05:11:23.649Z,5.75
2019-02-20T05:12:23.647Z,5.78
2019-02-20T05:13:23.627Z,5.77
2019-02-20T05:14:23.618Z,5.85
2019-02-20T05:15:23.608Z,5.83
2019-02-20T05:16:23.597Z,5.78
2019-02-20T05:17:23.596Z,5.85
2019-02-20T05:18:23.574Z,5.88
2019-02-20T05:19:23.563Z,5.83
2019-02-20T05:20:23.559Z,5.92
2019-02-20T05:21:23.541Z,5.88
2019-02-20T05:22:23.549Z,5.73
2019-02-20T05:23:23.526Z,5.78
2019-02-20T05:24:25.091Z,5.81
2019-02-20T05:25:23.502Z,5.81
2019-02-20T05:26:23.488Z,5.74
2019-02-20T05:27:23.486Z,5.73
2019-02-20T05:28:23.467Z,5.83
2019-02-20T05:29:23.458Z,5.88
2019-02-20T05:30:23.445Z,5.85
2019-02-20T05:31:23.435Z,5.86
2019-02-20T05:32:23.432Z,5.85
2019-02-20T05:33:23.413Z,5.83
2019-02-20T05:34:23.403Z,5.85
2019-02-20T05:35:23.394Z,5.85
2019-02-20T05:36:23.383Z,5.93
2019-02-20T05:37:23.570Z,5.83
2019-02-20T05:38:23.362Z,5.86
2019-02-20T05:39:23.347Z,5.85
2019-02-20T05:40:23.337Z,5.85
2019-02-20T05:41:23.330Z,5.86
2019-02-20T05:42:23.314Z,5.82
2019-02-20T05:43:23.313Z,5.88
2019-02-20T05:44:23.295Z,5.89
2019-02-20T05:45:23.284Z,5.88
2019-02-20T05:46:23.277Z,5.92
2019-02-20T05:47:23.261Z,5.88
2019-02-20T05:48:23.262Z,5.89
2019-02-20T05:49:23.240Z,5.88
2019-02-20T05:50:23.230Z,5.85
2019-02-20T05:51:23.218Z,5.93
2019-02-20T05:52:23.206Z,5.88
2019-02-20T05:53:23.207Z,5.89
2019-02-20T05:54:23.245Z,5.93
2019-02-20T05:55:23.175Z,5.86
2019-02-20T05:56:23.165Z,5.83
2019-02-20T05:57:23.152Z,5.88
2019-02-20T05:58:23.155Z,5.89
2019-02-20T05:59:23.132Z,5.88
2019-02-20T06:00:23.131Z,5.93
2019-02-20T06:01:23.114Z,5.92
2019-02-20T06:02:23.101Z,6.00
2019-02-20T06:03:23.097Z,5.88
2019-02-20T06:04:23.081Z,6.00
2019-02-20T06:05:23.069Z,5.96
2019-02-20T06:06:23.055Z,5.93
2019-02-20T06:07:23.045Z,5.96
2019-02-20T06:08:23.041Z,5.91
2019-02-20T06:09:24.738Z,6.01
2019-02-20T06:10:23.032Z,6.06
2019-02-20T06:11:23.000Z,6.00
2019-02-20T06:12:22.989Z,6.01
2019-02-20T06:13:22.989Z,5.98
2019-02-20T06:14:22.967Z,5.98
2019-02-20T06:15:22.960Z,5.96
2019-02-20T06:16:22.947Z,5.92
2019-02-20T06:17:22.934Z,5.88
2019-02-20T06:18:22.932Z,5.88
2019-02-20T06:19:22.915Z,5.93
2019-02-20T06:20:22.902Z,5.91
2019-02-20T06:21:22.896Z,5.88
2019-02-20T06:22:22.881Z,5.86
2019-02-20T06:23:22.881Z,5.88
2019-02-20T06:24:22.859Z,5.83
2019-02-20T06:25:22.850Z,5.85
2019-02-20T06:26:22.838Z,5.82
2019-02-20T06:27:22.828Z,5.89
2019-02-20T06:28:22.825Z,5.85
2019-02-20T06:29:22.805Z,5.89
2019-02-20T06:30:22.797Z,5.86
2019-02-20T06:31:22.783Z,5.85
2019-02-20T06:32:24.146Z,5.86
2019-02-20T06:33:22.770Z,5.82
2019-02-20T06:34:22.750Z,5.88
2019-02-20T06:35:22.742Z,5.95
2019-02-20T06:36:22.742Z,5.95
2019-02-20T06:37:22.722Z,6.01
2019-02-20T06:38:22.719Z,5.96
2019-02-20T06:39:22.698Z,6.00
2019-02-20T06:40:22.686Z,6.00
2019-02-20T06:41:22.677Z,6.00
2019-02-20T06:42:22.666Z,6.04
2019-02-20T06:43:22.662Z,6.09
2019-02-20T06:44:22.643Z,6.07
2019-02-20T06:45:22.644Z,6.06
2019-02-20T06:46:22.622Z,6.07
2019-02-20T06:47:22.611Z,6.01
2019-02-20T06:48:22.610Z,6.13
2019-02-20T06:49:22.590Z,6.26
2019-02-20T06:50:22.582Z,6.26
2019-02-20T06:51:22.570Z,6.26
2019-02-20T06:52:22.562Z,6.38
2019-02-20T06:53:22.556Z,6.41
2019-02-20T06:54:22.536Z,6.38
2019-02-20T06:55:22.525Z,6.50
2019-02-20T06:56:22.514Z,6.44
2019-02-20T06:57:22.504Z,6.53
2019-02-20T06:58:22.501Z,6.47
2019-02-20T06:59:22.482Z,6.46
2019-02-20T07:00:22.497Z,6.48
2019-02-20T07:01:22.460Z,6.63
2019-02-20T07:02:22.450Z,6.48
2019-02-20T07:03:22.447Z,6.61
2019-02-20T07:04:22.427Z,6.62
2019-02-20T07:05:22.416Z,6.54
2019-02-20T07:06:22.408Z,6.65
2019-02-20T07:07:22.394Z,6.59
2019-02-20T07:08:22.391Z,6.58
2019-02-20T07:09:22.372Z,6.63
2019-02-20T07:10:22.360Z,6.61
2019-02-20T07:11:22.350Z,6.59
2019-02-20T07:12:22.340Z,6.61
2019-02-20T07:13:22.363Z,6.58
2019-02-20T07:14:22.320Z,6.61
2019-02-20T07:15:22.308Z,6.66
2019-02-20T07:16:22.295Z,6.69
2019-02-20T07:17:22.285Z,6.65
2019-02-20T07:18:22.279Z,6.63
2019-02-20T07:19:22.280Z,6.66
2019-02-20T07:20:22.253Z,6.71
2019-02-20T07:21:22.241Z,6.76
2019-02-20T07:22:22.246Z,6.69
2019-02-20T07:23:22.227Z,6.77
2019-02-20T07:24:22.219Z,6.76
2019-02-20T07:25:22.204Z,6.77
2019-02-20T07:26:22.186Z,6.76
2019-02-20T07:27:22.176Z,6.79
2019-02-20T07:28:22.166Z,6.79
2019-02-20T07:29:22.162Z,6.81
2019-02-20T07:30:22.148Z,6.84
2019-02-20T07:31:22.132Z,6.77
2019-02-20T07:32:22.127Z,6.76
2019-02-20T07:33:22.113Z,6.72
2019-02-20T07:34:22.112Z,6.83
2019-02-20T07:35:22.090Z,6.80
2019-02-20T07:36:22.077Z,6.77
2019-02-20T07:37:22.066Z,6.81
2019-02-20T07:38:22.056Z,6.80
2019-02-20T07:39:22.052Z,6.76
2019-02-20T07:40:22.034Z,6.80
2019-02-20T07:41:22.024Z,6.89
2019-02-20T07:42:22.012Z,6.83
2019-02-20T07:43:22.006Z,6.91
2019-02-20T07:44:22.003Z,6.95
2019-02-20T07:45:21.979Z,6.95
2019-02-20T07:46:21.969Z,6.99
2019-02-20T07:47:21.960Z,6.99
2019-02-20T07:48:21.948Z,7.08
2019-02-20T07:49:21.945Z,7.07
2019-02-20T07:50:21.924Z,6.98
2019-02-20T07:51:21.914Z,7.02
2019-02-20T07:52:21.903Z,6.97
2019-02-20T07:53:21.896Z,6.99
2019-02-20T07:54:21.890Z,7.02
2019-02-20T07:55:21.871Z,6.97
2019-02-20T07:56:21.860Z,7.04
2019-02-20T07:57:21.854Z,6.97
2019-02-20T07:58:21.838Z,7.01
2019-02-20T07:59:21.838Z,6.99
2019-02-20T08:00:21.829Z,7.13
2019-02-20T08:01:21.805Z,7.17
2019-02-20T08:02:21.796Z,7.17
2019-02-20T08:03:21.787Z,7.19
2019-02-20T08:04:21.784Z,7.23
2019-02-20T08:05:21.762Z,7.35
2019-02-20T08:06:21.753Z,7.32
2019-02-20T08:07:21.741Z,7.37
2019-02-20T08:08:21.730Z,7.35
2019-02-20T08:09:21.729Z,7.40
2019-02-20T08:10:21.708Z,7.37
2019-02-20T08:11:21.697Z,7.40
2019-02-20T08:12:21.690Z,7.40
2019-02-20T08:13:21.675Z,7.50
2019-02-20T08:14:21.703Z,7.49
2019-02-20T08:15:21.655Z,7.58
2019-02-20T08:16:21.644Z,7.58
2019-02-20T08:17:21.636Z,7.67
2019-02-20T08:18:21.621Z,7.55
2019-02-20T08:19:22.008Z,7.71
2019-02-20T08:20:21.609Z,7.71
2019-02-20T08:21:21.589Z,7.58
2019-02-20T08:22:21.584Z,7.56
2019-02-20T08:23:21.567Z,7.56
2019-02-20T08:24:21.561Z,7.45
2019-02-20T08:25:23.133Z,7.50
2019-02-20T08:26:21.540Z,7.38
2019-02-20T08:27:21.524Z,7.42
2019-02-20T08:28:21.517Z,7.37
2019-02-20T08:29:21.503Z,7.32
2019-02-20T08:30:21.511Z,7.38
2019-02-20T08:31:21.483Z,7.40
2019-02-20T08:32:21.473Z,7.34
2019-02-20T08:33:21.469Z,7.34
2019-02-20T08:34:21.450Z,7.42
2019-02-20T08:35:21.452Z,7.34
2019-02-20T08:36:21.428Z,7.47
2019-02-20T08:37:21.419Z,7.58
2019-02-20T08:38:21.409Z,7.59
2019-02-20T08:39:21.396Z,7.66
2019-02-20T08:40:21.395Z,7.69
2019-02-20T08:41:21.376Z,7.69
2019-02-20T08:42:21.363Z,7.69
2019-02-20T08:43:21.354Z,7.72
2019-02-20T08:44:21.342Z,7.63
2019-02-20T08:45:21.341Z,7.55
2019-02-20T08:46:21.325Z,7.62
2019-02-20T08:47:21.335Z,7.63
2019-02-20T08:48:21.299Z,7.66
2019-02-20T08:49:21.290Z,7.94
2019-02-20T08:50:21.289Z,8.39
2019-02-20T08:51:21.270Z,8.69
2019-02-20T08:52:21.256Z,8.94
2019-02-20T08:53:21.285Z,8.75
2019-02-20T08:54:21.266Z,8.81
2019-02-20T08:55:21.282Z,8.94
2019-02-20T08:56:21.211Z,8.90
2019-02-20T08:57:21.203Z,8.75
2019-02-20T08:58:21.188Z,8.55
2019-02-20T08:59:21.179Z,8.72
2019-02-20T09:00:21.177Z,8.71
2019-02-20T09:01:21.156Z,8.60
2019-02-20T09:02:21.144Z,8.45
2019-02-20T09:03:21.135Z,8.29
2019-02-20T09:04:21.125Z,8.11
2019-02-20T09:05:21.120Z,8.07
2019-02-20T09:06:21.105Z,8.03
2019-02-20T09:07:21.092Z,8.04
2019-02-20T09:08:21.083Z,8.08
2019-02-20T09:09:21.071Z,8.03
2019-02-20T09:10:21.064Z,8.03
2019-02-20T09:11:21.045Z,8.04
2019-02-20T09:12:21.035Z,8.02
2019-02-20T09:13:21.023Z,7.99
2019-02-20T09:14:21.012Z,8.15
2019-02-20T09:15:21.048Z,8.17
2019-02-20T09:16:20.990Z,8.11
2019-02-20T09:17:20.980Z,8.18
2019-02-20T09:18:20.989Z,8.25
2019-02-20T09:19:20.956Z,8.30
2019-02-20T09:20:20.944Z,8.29
2019-02-20T09:21:20.944Z,8.22
2019-02-20T09:22:20.922Z,8.30
2019-02-20T09:23:20.911Z,8.36
2019-02-20T09:24:20.902Z,8.29
2019-02-20T09:25:20.892Z,8.40
2019-02-20T09:26:20.887Z,8.45
2019-02-20T09:27:20.873Z,8.40
2019-02-20T09:28:20.856Z,8.51
2019-02-20T09:29:20.845Z,8.51
2019-02-20T09:30:28.233Z,8.55
2019-02-20T09:31:21.832Z,8.65
2019-02-20T09:32:20.811Z,8.71
2019-02-20T09:33:20.801Z,8.66
2019-02-20T09:34:20.791Z,8.84
2019-02-20T09:35:20.778Z,8.75
2019-02-20T09:36:20.777Z,8.78
2019-02-20T09:37:20.758Z,8.71
2019-02-20T09:38:20.751Z,8.86
2019-02-20T09:39:20.736Z,9.15
2019-02-20T09:40:20.725Z,9.48
2019-02-20T09:41:20.722Z,9.70
2019-02-20T09:42:20.703Z,10.04
2019-02-20T09:43:20.691Z,10.01
2019-02-20T09:44:20.683Z,10.24
2019-02-20T09:45:20.670Z,10.42
2019-02-20T09:46:20.667Z,10.51
2019-02-20T09:47:20.646Z,10.70
2019-02-20T09:48:20.636Z,10.58
2019-02-20T09:49:20.636Z,10.25
2019-02-20T09:50:20.615Z,9.97
2019-02-20T09:51:20.612Z,9.73
2019-02-20T09:52:20.593Z,9.64
2019-02-20T09:53:20.579Z,9.42
2019-02-20T09:54:20.569Z,9.42
2019-02-20T09:55:20.559Z,9.35
2019-02-20T09:56:20.573Z,9.42
2019-02-20T09:57:20.536Z,9.35
2019-02-20T09:58:20.529Z,9.45
2019-02-20T09:59:20.518Z,9.49
2019-02-20T10:00:20.503Z,9.35
2019-02-20T10:01:20.500Z,9.39
2019-02-20T10:02:20.481Z,9.39
2019-02-20T10:03:20.469Z,9.25
2019-02-20T10:04:20.458Z,9.20
2019-02-20T10:05:20.447Z,9.15
2019-02-20T10:06:20.445Z,9.06
2019-02-20T10:07:20.432Z,9.09
2019-02-20T10:08:20.413Z,9.09
2019-02-20T10:09:20.404Z,9.06
2019-02-20T10:10:20.391Z,9.12
2019-02-20T10:11:20.388Z,9.09
2019-02-20T10:12:20.369Z,9.04
2019-02-20T10:13:20.367Z,8.97
2019-02-20T10:14:20.347Z,8.88
2019-02-20T10:15:20.341Z,8.87
2019-02-20T10:16:20.337Z,9.02
2019-02-20T10:17:20.313Z,8.96
2019-02-20T10:18:20.302Z,9.01
2019-02-20T10:19:20.290Z,8.99
2019-02-20T10:20:20.280Z,8.97
2019-02-20T10:21:20.277Z,9.10
2019-02-20T10:22:20.262Z,9.13
2019-02-20T10:23:20.256Z,9.27
2019-02-20T10:24:20.234Z,9.28
2019-02-20T10:25:20.226Z,9.35
2019-02-20T10:26:20.221Z,9.35
2019-02-20T10:27:20.201Z,9.38
2019-02-20T10:28:20.193Z,9.45
2019-02-20T10:29:20.179Z,9.46
2019-02-20T10:30:20.168Z,9.50
2019-02-20T10:31:20.168Z,9.38
2019-02-20T10:32:20.149Z,9.45
2019-02-20T10:33:20.135Z,9.53
2019-02-20T10:34:20.128Z,9.39
2019-02-20T10:35:20.112Z,9.45
2019-02-20T10:36:20.110Z,9.42
2019-02-20T10:37:20.092Z,9.46
2019-02-20T10:38:20.079Z,9.45
2019-02-20T10:39:20.069Z,9.34
2019-02-20T10:40:20.058Z,9.39
2019-02-20T10:41:20.053Z,9.40
2019-02-20T10:42:20.034Z,9.24
2019-02-20T10:43:20.024Z,9.28
2019-02-20T10:44:20.038Z,9.25
2019-02-20T10:45:20.004Z,9.25
2019-02-20T10:46:19.999Z,9.25
2019-02-20T10:47:19.977Z,9.16
2019-02-20T10:48:19.969Z,9.23
2019-02-20T10:49:19.958Z,9.24
2019-02-20T10:50:19.944Z,9.21
2019-02-20T10:51:19.942Z,9.24
2019-02-20T10:52:19.967Z,9.21
2019-02-20T10:53:19.915Z,9.25
2019-02-20T10:54:19.900Z,9.18
2019-02-20T10:55:19.889Z,9.02
2019-02-20T10:56:19.889Z,9.06
2019-02-20T10:57:19.870Z,9.01
2019-02-20T10:58:19.860Z,9.16
2019-02-20T10:59:19.845Z,9.27
2019-02-20T11:00:24.065Z,9.34
2019-02-20T11:01:19.831Z,9.49
2019-02-20T11:02:19.816Z,9.40
2019-02-20T11:03:19.800Z,9.57
2019-02-20T11:04:19.790Z,9.64
2019-02-20T11:05:19.779Z,9.57
2019-02-20T11:06:19.777Z,9.57
2019-02-20T11:07:19.758Z,9.60
2019-02-20T11:08:19.746Z,9.57
2019-02-20T11:09:19.733Z,9.61
2019-02-20T11:10:19.723Z,9.56
2019-02-20T11:11:19.712Z,9.49
2019-02-20T11:12:19.710Z,9.53
2019-02-20T11:13:19.690Z,9.50
2019-02-20T11:14:19.678Z,9.57
2019-02-20T11:15:19.673Z,9.56
2019-02-20T11:16:19.656Z,9.66
2019-02-20T11:17:19.653Z,9.68
2019-02-20T11:18:19.635Z,9.66
2019-02-20T11:19:19.626Z,9.68
2019-02-20T11:20:19.615Z,9.71
2019-02-20T11:21:19.603Z,9.60
2019-02-20T11:22:20.677Z,9.70
2019-02-20T11:23:19.578Z,9.60
2019-02-20T11:24:19.568Z,9.66
2019-02-20T11:25:19.557Z,9.66
2019-02-20T11:26:19.546Z,9.66
2019-02-20T11:27:19.593Z,9.63
2019-02-20T11:28:26.786Z,9.63
2019-02-20T11:29:20.513Z,9.78
2019-02-20T11:30:19.501Z,9.71
2019-02-20T11:31:19.490Z,9.75
2019-02-20T11:32:19.488Z,9.75
2019-02-20T11:33:19.472Z,9.70
2019-02-20T11:34:19.860Z,9.70
2019-02-20T11:35:19.446Z,9.61
2019-02-20T11:36:19.434Z,9.68
2019-02-20T11:37:19.431Z,9.61
2019-02-20T11:38:19.411Z,9.66
2019-02-20T11:39:19.402Z,9.61
2019-02-20T11:40:19.388Z,9.71
2019-02-20T11:41:19.378Z,9.73
2019-02-20T11:42:19.374Z,9.73
2019-02-20T11:43:20.867Z,9.71
2019-02-20T11:44:21.209Z,9.66
2019-02-20T11:45:19.334Z,9.78
2019-02-20T11:46:19.322Z,9.60
2019-02-20T11:47:19.325Z,9.63
2019-02-20T11:48:19.301Z,9.68
2019-02-20T11:49:19.290Z,9.71
2019-02-20T11:50:19.277Z,9.70
2019-02-20T11:51:19.267Z,9.76
2019-02-20T11:52:19.266Z,9.73
2019-02-20T11:53:19.245Z,9.58
2019-02-20T11:54:19.237Z,9.64
2019-02-20T11:55:19.226Z,9.53
2019-02-20T11:56:26.438Z,9.53
2019-02-20T11:57:20.230Z,9.56
2019-02-20T11:58:19.189Z,9.64
2019-02-20T11:59:19.182Z,9.49
2019-02-20T12:00:19.166Z,9.53
2019-02-20T12:01:19.157Z,9.49
2019-02-20T12:02:19.156Z,9.57
2019-02-20T12:03:19.133Z,9.56
2019-02-20T12:04:19.122Z,9.64
2019-02-20T12:05:19.112Z,9.71
2019-02-20T12:06:19.100Z,9.79
2019-02-20T12:07:19.098Z,9.85
2019-02-20T12:08:19.079Z,10.00
2019-02-20T12:09:19.067Z,10.07
2019-02-20T12:10:19.056Z,10.15
2019-02-20T12:11:19.046Z,10.30
2019-02-20T12:12:19.041Z,10.36
2019-02-20T12:13:19.022Z,10.46
2019-02-20T12:14:19.020Z,10.53
2019-02-20T12:15:18.999Z,10.42
2019-02-20T12:16:18.994Z,10.39
2019-02-20T12:17:18.986Z,10.42
2019-02-20T12:18:18.999Z,10.37
2019-02-20T12:19:18.956Z,10.36
2019-02-20T12:20:18.944Z,10.28
2019-02-20T12:21:18.933Z,10.42
2019-02-20T12:22:18.930Z,10.39
2019-02-20T12:23:20.666Z,10.51
2019-02-20T12:24:18.931Z,10.51
2019-02-20T12:25:18.891Z,10.43
2019-02-20T12:26:18.878Z,10.44
2019-02-20T12:27:18.875Z,10.43
2019-02-20T12:28:18.857Z,10.39
2019-02-20T12:29:18.847Z,10.26
2019-02-20T12:30:18.834Z,10.10
2019-02-20T12:31:18.826Z,10.01
2019-02-20T12:32:18.820Z,9.99
2019-02-20T12:33:18.801Z,10.04
2019-02-20T12:34:18.794Z,9.97
2019-02-20T12:35:18.780Z,10.10
2019-02-20T12:36:18.766Z,10.21
2019-02-20T12:37:18.766Z,10.19
2019-02-20T12:38:18.745Z,10.30
2019-02-20T12:39:18.735Z,10.40
2019-02-20T12:40:18.722Z,10.51
2019-02-20T12:41:18.713Z,10.59
2019-02-20T12:42:18.748Z,10.58
2019-02-20T12:43:18.690Z,10.81
2019-02-20T12:44:18.679Z,10.92
2019-02-20T12:45:18.668Z,10.89
2019-02-20T12:46:18.660Z,10.98
2019-02-20T12:47:18.654Z,11.01
2019-02-20T12:48:18.634Z,10.86
2019-02-20T12:49:18.627Z,10.91
2019-02-20T12:50:18.614Z,10.92
2019-02-20T12:51:18.603Z,10.80
2019-02-20T12:52:18.598Z,10.62
2019-02-20T12:53:18.579Z,10.66
2019-02-20T12:54:18.575Z,10.73
2019-02-20T12:55:18.557Z,10.71
2019-02-20T12:56:18.553Z,10.81
2019-02-20T12:57:18.545Z,10.74
2019-02-20T12:58:18.524Z,10.77
2019-02-20T12:59:18.513Z,10.84
2019-02-20T13:00:18.503Z,10.76
2019-02-20T13:01:18.491Z,10.81
2019-02-20T13:02:18.488Z,10.70
2019-02-20T13:03:18.469Z,10.80
2019-02-20T13:04:18.458Z,10.78
2019-02-20T13:05:18.447Z,10.80
2019-02-20T13:06:18.435Z,10.77
2019-02-20T13:07:18.464Z,10.71
2019-02-20T13:08:18.415Z,10.73
2019-02-20T13:09:18.415Z,10.71
2019-02-20T13:10:18.392Z,10.60
2019-02-20T13:11:18.382Z,10.46
2019-02-20T13:12:18.369Z,10.43
2019-02-20T13:13:18.370Z,10.33
2019-02-20T13:14:18.348Z,10.37
2019-02-20T13:15:18.336Z,10.26